createdAt,value
2018-11-11T00:00:22.152Z,29
2018-11-11T00:01:13.472Z,29.3
2018-11-11T00:02:03.425Z,29.5
2018-11-11T00:02:52.284Z,29.7
2018-11-11T00:03:43.167Z,29.9
2018-11-11T00:04:32.357Z,30.1
2018-11-11T00:05:22.075Z,30.2
2018-11-11T00:06:12.066Z,30.3
2018-11-11T00:07:03.109Z,30.5
2018-11-11T00:25:11.350Z,27.3
2018-11-11T00:26:02.061Z,26.8
2018-11-11T00:26:51.068Z,26.6
2018-11-11T00:27:42.512Z,26.4
2018-11-11T00:28:33.535Z,26.3
2018-11-11T00:29:22.888Z,26.2
2018-11-11T00:30:11.795Z,26.1
2018-11-11T00:31:01.600Z,26
2018-11-11T00:31:50.912Z,25.9
2018-11-11T00:32:41.932Z,25.6
2018-11-11T00:33:32.535Z,25.6
2018-11-11T00:34:22.169Z,26
2018-11-11T00:35:13.257Z,26.8
2018-11-11T00:36:02.122Z,27.1
2018-11-11T00:36:51.979Z,27.4
2018-11-11T00:37:43.275Z,27.8
2018-11-11T00:38:32.375Z,28.1
2018-11-11T00:39:23.602Z,28.4
2018-11-11T00:40:11.181Z,28.7
2018-11-11T00:41:03.034Z,28.9
2018-11-11T00:41:54.044Z,29.2
2018-11-11T00:42:42.799Z,29.4
2018-11-11T00:43:32.476Z,29.6
2018-11-11T00:44:21.776Z,29.8
2018-11-11T00:45:13.430Z,30
2018-11-11T00:46:02.723Z,30.2
2018-11-11T00:46:52.103Z,30.3
2018-11-11T00:47:42.376Z,30.4
2018-11-11T00:48:31.839Z,30.6
2018-11-11T00:49:21.774Z,30.8
2018-11-11T00:50:12.804Z,30.9
2018-11-11T00:51:04.035Z,31
2018-11-11T00:51:53.281Z,31.1
2018-11-11T00:52:42.589Z,31.2
2018-11-11T00:53:33.547Z,31.3
2018-11-11T00:54:23.603Z,31.4
2018-11-11T00:55:13.447Z,31.4
2018-11-11T00:56:04.156Z,31.3
2018-11-11T00:56:54.056Z,31.1
2018-11-11T00:57:43.513Z,30.9
2018-11-11T00:58:34.443Z,30.8
2018-11-11T00:59:25.245Z,30.7
2018-11-11T01:00:13.659Z,30.6
2018-11-11T01:01:04.153Z,30.4
2018-11-11T01:01:54.273Z,30.4
2018-11-11T01:02:43.705Z,30.3
2018-11-11T01:03:34.240Z,30.1
2018-11-11T01:04:24.860Z,28.8
2018-11-11T01:05:13.697Z,27.7
2018-11-11T01:06:04.186Z,27.2
2018-11-11T01:06:53.780Z,26.9
2018-11-11T01:07:44.195Z,26.7
2018-11-11T01:08:34.595Z,26.5
2018-11-11T01:09:24.497Z,26.4
2018-11-11T01:10:14.742Z,26.3
2018-11-11T01:11:04.527Z,26.2
2018-11-11T01:11:53.947Z,26.1
2018-11-11T01:12:43.277Z,26
2018-11-11T01:13:34.372Z,25.9
2018-11-11T01:14:24.700Z,25.6
2018-11-11T01:15:15.008Z,25.7
2018-11-11T01:16:05.579Z,26.4
2018-11-11T01:16:55.642Z,27
2018-11-11T01:17:45.162Z,27.3
2018-11-11T01:18:35.812Z,27.6
2018-11-11T01:19:25.058Z,27.9
2018-11-11T01:20:15.470Z,28.2
2018-11-11T01:21:06.022Z,28.5
2018-11-11T01:21:55.904Z,28.8
2018-11-11T01:22:45.242Z,29.1
2018-11-11T01:23:35.367Z,29.3
2018-11-11T01:24:26.291Z,29.5
2018-11-11T01:25:16.395Z,29.6
2018-11-11T01:26:06.578Z,29.8
2018-11-11T01:26:56.680Z,30
2018-11-11T01:27:45.471Z,30.1
2018-11-11T01:28:35.862Z,30.3
2018-11-11T01:29:24.951Z,30.4
2018-11-11T01:30:15.483Z,30.5
2018-11-11T01:31:06.027Z,30.6
2018-11-11T01:31:56.106Z,30.8
2018-11-11T01:32:46.462Z,30.8
2018-11-11T01:33:34.771Z,30.9
2018-11-11T01:34:25.175Z,31
2018-11-11T01:35:14.686Z,31.1
2018-11-11T01:36:07.923Z,31.2
2018-11-11T01:36:56.119Z,31.3
2018-11-11T01:37:47.236Z,31.3
2018-11-11T01:38:35.781Z,31.4
2018-11-11T01:39:25.099Z,31.4
2018-11-11T01:40:16.475Z,31.3
2018-11-11T01:41:06.354Z,31.1
2018-11-11T01:41:56.601Z,31
2018-11-11T01:42:47.063Z,30.9
2018-11-11T01:43:36.421Z,30.8
2018-11-11T01:44:27.498Z,30.6
2018-11-11T01:45:16.675Z,30.5
2018-11-11T01:46:07.073Z,30.4
2018-11-11T01:46:57.665Z,30.3
2018-11-11T01:47:46.593Z,30.2
2018-11-11T01:48:36.676Z,30.1
2018-11-11T01:49:27.590Z,28.3
2018-11-11T01:50:17.693Z,27.5
2018-11-11T01:51:07.537Z,27.1
2018-11-11T01:51:58.021Z,26.8
2018-11-11T01:52:47.760Z,26.7
2018-11-11T01:53:37.066Z,26.6
2018-11-11T01:54:27.061Z,26.4
2018-11-11T01:55:17.315Z,26.3
2018-11-11T01:56:05.928Z,26.3
2018-11-11T01:56:56.678Z,26.2
2018-11-11T01:57:47.791Z,26.1
2018-11-11T01:58:36.660Z,26
2018-11-11T01:59:28.112Z,25.7
2018-11-11T02:00:16.325Z,25.7
2018-11-11T02:01:08.602Z,26.3
2018-11-11T02:01:57.136Z,27.1
2018-11-11T02:02:47.872Z,27.3
2018-11-11T02:03:37.484Z,27.6
2018-11-11T02:04:28.368Z,27.9
2018-11-11T02:05:17.439Z,28.1
2018-11-11T02:06:08.177Z,28.4
2018-11-11T02:06:59.302Z,28.6
2018-11-11T02:07:48.597Z,28.9
2018-11-11T02:08:38.766Z,29.1
2018-11-11T02:09:28.089Z,29.3
2018-11-11T02:10:18.318Z,29.5
2018-11-11T02:11:07.884Z,29.6
2018-11-11T02:11:59.225Z,29.8
2018-11-11T02:12:50.371Z,29.9
2018-11-11T02:13:39.293Z,30.1
2018-11-11T02:14:28.931Z,30.2
2018-11-11T02:15:19.374Z,30.3
2018-11-11T02:16:09.257Z,30.3
2018-11-11T02:16:58.926Z,29.9
2018-11-11T02:17:49.927Z,29.3
2018-11-11T02:18:39.178Z,28.3
2018-11-11T02:19:28.711Z,27.6
2018-11-11T02:20:19.460Z,26.8
2018-11-11T02:21:08.808Z,25.9
2018-11-11T02:21:59.661Z,25
2018-11-11T02:22:49.862Z,24.3
2018-11-11T02:23:41.039Z,24.4
2018-11-11T02:24:29.576Z,25
2018-11-11T02:25:19.827Z,26.1
2018-11-11T02:26:10.756Z,27
2018-11-11T02:27:01.613Z,27.4
2018-11-11T02:27:49.928Z,27.8
2018-11-11T02:28:39.559Z,28
2018-11-11T02:29:29.573Z,28.3
2018-11-11T02:30:20.323Z,28.7
2018-11-11T02:31:09.721Z,29
2018-11-11T02:32:00.085Z,29.3
2018-11-11T02:32:49.646Z,29.5
2018-11-11T02:33:40.507Z,29.8
2018-11-11T02:34:30.771Z,30
2018-11-11T02:35:19.964Z,30.2
2018-11-11T02:36:11.296Z,30.4
2018-11-11T02:36:59.835Z,30.5
2018-11-11T02:37:52.277Z,30.7
2018-11-11T02:38:39.777Z,30.8
2018-11-11T02:39:31.691Z,30.9
2018-11-11T02:40:21.175Z,31.1
2018-11-11T02:41:10.983Z,31.2
2018-11-11T02:42:00.841Z,31.3
2018-11-11T02:42:50.590Z,31.4
2018-11-11T02:43:41.510Z,31.3
2018-11-11T02:44:31.790Z,31.2
2018-11-11T02:45:21.892Z,31.1
2018-11-11T02:46:10.504Z,30.9
2018-11-11T02:47:01.212Z,30.8
2018-11-11T02:47:52.022Z,30.7
2018-11-11T02:48:41.592Z,30.6
2018-11-11T02:49:31.092Z,30.4
2018-11-11T02:50:20.936Z,30.3
2018-11-11T02:51:11.855Z,30.2
2018-11-11T02:52:01.610Z,30.1
2018-11-11T02:52:50.942Z,28.3
2018-11-11T02:53:41.412Z,27.5
2018-11-11T02:54:30.940Z,27.1
2018-11-11T02:55:21.810Z,26.8
2018-11-11T02:56:11.951Z,26.7
2018-11-11T02:57:01.384Z,26.5
2018-11-11T02:57:51.913Z,26.4
2018-11-11T02:58:42.009Z,26.3
2018-11-11T02:59:31.244Z,26.2
2018-11-11T03:00:21.772Z,26.1
2018-11-11T03:01:12.271Z,26.1
2018-11-11T03:02:02.061Z,25.9
2018-11-11T03:02:51.741Z,25.6
2018-11-11T03:03:42.866Z,25.9
2018-11-11T03:04:34.721Z,26.7
2018-11-11T03:05:22.513Z,27.2
2018-11-11T03:06:13.423Z,27.4
2018-11-11T03:07:03.066Z,27.8
2018-11-11T03:07:53.282Z,28.1
2018-11-11T03:08:41.938Z,28.4
2018-11-11T03:09:34.083Z,28.7
2018-11-11T03:10:24.224Z,29
2018-11-11T03:11:12.843Z,29.2
2018-11-11T03:12:04.122Z,29.4
2018-11-11T03:12:53.856Z,29.6
2018-11-11T03:13:43.728Z,29.8
2018-11-11T03:14:33.938Z,30
2018-11-11T03:15:24.219Z,30.2
2018-11-11T03:16:12.279Z,30.3
2018-11-11T03:17:04.393Z,30.5
2018-11-11T03:17:53.430Z,30.6
2018-11-11T03:18:43.865Z,30.8
2018-11-11T03:19:34.188Z,30.9
2018-11-11T03:20:25.078Z,31
2018-11-11T03:21:13.847Z,31.1
2018-11-11T03:22:04.010Z,31.2
2018-11-11T03:22:53.881Z,31.3
2018-11-11T03:23:44.495Z,31.4
2018-11-11T03:24:35.247Z,31.3
2018-11-11T03:25:24.484Z,31.2
2018-11-11T03:26:13.708Z,31.1
2018-11-11T03:27:04.248Z,30.9
2018-11-11T03:27:54.157Z,30.8
2018-11-11T03:28:44.120Z,30.7
2018-11-11T03:29:35.092Z,30.6
2018-11-11T03:30:24.936Z,30.4
2018-11-11T03:31:14.745Z,30.3
2018-11-11T03:32:05.404Z,30.2
2018-11-11T03:32:55.812Z,29.3
2018-11-11T03:33:44.592Z,28
2018-11-11T03:34:36.252Z,27.4
2018-11-11T03:35:24.006Z,27.1
2018-11-11T03:36:15.196Z,26.9
2018-11-11T03:37:05.786Z,26.8
2018-11-11T03:37:55.019Z,26.6
2018-11-11T03:38:44.209Z,26.5
2018-11-11T03:39:35.513Z,26.4
2018-11-11T03:40:25.157Z,26.3
2018-11-11T03:41:14.411Z,26.2
2018-11-11T03:42:04.984Z,26.1
2018-11-11T03:42:56.025Z,26.1
2018-11-11T03:43:45.461Z,25.7
2018-11-11T03:44:35.349Z,25.8
2018-11-11T03:45:25.007Z,26.4
2018-11-11T03:46:15.258Z,27.2
2018-11-11T03:47:06.392Z,27.4
2018-11-11T03:47:56.361Z,27.7
2018-11-11T03:48:45.894Z,28
2018-11-11T03:49:35.621Z,28.3
2018-11-11T03:50:26.188Z,28.6
2018-11-11T03:51:16.326Z,28.9
2018-11-11T03:52:06.059Z,29.1
2018-11-11T03:52:56.950Z,29.4
2018-11-11T03:53:46.198Z,29.6
2018-11-11T03:54:36.725Z,29.8
2018-11-11T03:55:26.872Z,29.9
2018-11-11T03:56:16.048Z,30.1
2018-11-11T03:57:07.511Z,30.2
2018-11-11T03:57:57.798Z,30.3
2018-11-11T03:58:47.938Z,30.4
2018-11-11T03:59:36.456Z,30.6
2018-11-11T04:00:27.648Z,30.7
2018-11-11T04:01:16.976Z,30.8
2018-11-11T04:02:06.028Z,30.9
2018-11-11T04:02:57.735Z,31
2018-11-11T04:03:47.723Z,31.1
2018-11-11T04:04:36.423Z,31.2
2018-11-11T04:05:25.749Z,31.3
2018-11-11T04:06:17.607Z,31.3
2018-11-11T04:07:07.528Z,31.4
2018-11-11T04:07:58.030Z,31.3
2018-11-11T04:08:45.997Z,31.1
2018-11-11T04:09:37.990Z,31.1
2018-11-11T04:10:29.652Z,30.9
2018-11-11T04:11:18.490Z,30.8
2018-11-11T04:12:07.514Z,30.6
2018-11-11T04:12:58.026Z,30.5
2018-11-11T04:13:48.429Z,30.4
2018-11-11T04:14:37.582Z,30.3
2018-11-11T04:15:28.767Z,30.1
2018-11-11T04:16:17.439Z,30.1
2018-11-11T04:17:08.249Z,28.3
2018-11-11T04:17:59.197Z,27.6
2018-11-11T04:18:48.316Z,27.2
2018-11-11T04:19:38.764Z,26.9
2018-11-11T04:20:28.929Z,26.8
2018-11-11T04:21:18.629Z,26.6
2018-11-11T04:22:09.296Z,26.5
2018-11-11T04:22:59.509Z,26.4
2018-11-11T04:23:48.846Z,26.3
2018-11-11T04:24:38.442Z,26.2
2018-11-11T04:25:29.122Z,26.1
2018-11-11T04:26:19.048Z,26
2018-11-11T04:27:09.103Z,25.8
2018-11-11T04:27:58.611Z,25.8
2018-11-11T04:28:49.671Z,26.3
2018-11-11T04:29:39.514Z,27.1
2018-11-11T04:30:29.426Z,27.4
2018-11-11T04:31:19.636Z,27.6
2018-11-11T04:32:10.010Z,27.9
2018-11-11T04:32:58.918Z,28.2
2018-11-11T04:33:49.530Z,28.4
2018-11-11T04:34:40.172Z,28.7
2018-11-11T04:35:31.029Z,28.9
2018-11-11T04:36:19.566Z,29.1
2018-11-11T04:54:23.744Z,31.3
2018-11-11T04:55:12.854Z,31.3
2018-11-11T04:56:03.973Z,31.3
2018-11-11T04:56:53.546Z,31.4
2018-11-11T04:57:44.139Z,31.4
2018-11-11T04:58:33.901Z,31.3
2018-11-11T04:59:23.403Z,31.2
2018-11-11T05:00:13.755Z,31.1
2018-11-11T05:01:02.894Z,30.9
2018-11-11T05:01:53.364Z,30.8
2018-11-11T05:02:42.736Z,30.7
2018-11-11T05:03:32.545Z,30.6
2018-11-11T05:04:24.308Z,30.4
2018-11-11T05:05:14.314Z,30.3
2018-11-11T05:06:02.932Z,30.2
2018-11-11T05:06:54.437Z,30.1
2018-11-11T05:07:44.506Z,28.8
2018-11-11T05:08:33.931Z,27.9
2018-11-11T05:09:24.106Z,27.4
2018-11-11T05:10:14.598Z,27.1
2018-11-11T05:11:03.537Z,26.9
2018-11-11T05:11:54.059Z,26.8
2018-11-11T05:12:43.320Z,26.7
2018-11-11T05:13:32.638Z,26.6
2018-11-11T05:14:23.945Z,26.4
2018-11-11T05:15:13.139Z,26.4
2018-11-11T05:16:03.270Z,26.3
2018-11-11T05:16:54.912Z,26.2
2018-11-11T05:17:43.927Z,26.1
2018-11-11T05:18:34.608Z,25.8
2018-11-11T05:19:24.328Z,25.9
2018-11-11T05:20:14.342Z,26.4
2018-11-11T05:21:05.152Z,27.3
2018-11-11T05:21:55.956Z,27.6
2018-11-11T05:22:44.568Z,27.7
2018-11-11T05:23:34.280Z,27.9
2018-11-11T05:24:24.882Z,28.1
2018-11-11T05:25:15.189Z,28.4
2018-11-11T05:26:04.969Z,28.6
2018-11-11T05:26:55.057Z,28.8
2018-11-11T05:27:45.081Z,28.9
2018-11-11T05:28:34.439Z,29
2018-11-11T05:29:24.134Z,28.9
2018-11-11T05:30:15.589Z,28.1
2018-11-11T05:31:05.447Z,27.3
2018-11-11T05:31:55.004Z,26.6
2018-11-11T05:32:44.974Z,25.9
2018-11-11T05:33:34.409Z,25.1
2018-11-11T05:34:26.126Z,24.2
2018-11-11T05:35:14.766Z,23.5
2018-11-11T05:36:05.286Z,23.6
2018-11-11T05:36:55.283Z,24.1
2018-11-11T05:37:44.909Z,25.1
2018-11-11T05:38:35.003Z,26.4
2018-11-11T05:39:23.689Z,27.1
2018-11-11T05:40:15.140Z,27.3
2018-11-11T05:41:05.467Z,27.6
2018-11-11T05:41:56.478Z,27.9
2018-11-11T05:42:45.391Z,28.2
2018-11-11T05:43:36.616Z,28.5
2018-11-11T05:44:25.675Z,28.8
2018-11-11T05:45:16.418Z,29.1
2018-11-11T05:46:06.138Z,29.3
2018-11-11T05:46:55.994Z,29.5
2018-11-11T05:47:46.542Z,29.8
2018-11-11T05:48:35.695Z,29.9
2018-11-11T05:49:26.165Z,30.1
2018-11-11T05:50:16.846Z,30.3
2018-11-11T05:51:07.898Z,30.4
2018-11-11T05:51:56.515Z,30.6
2018-11-11T05:52:47.455Z,30.8
2018-11-11T05:53:36.513Z,30.9
2018-11-11T05:54:25.632Z,31
2018-11-11T05:55:17.970Z,31.1
2018-11-11T05:56:07.201Z,31.2
2018-11-11T05:56:56.285Z,31.3
2018-11-11T05:57:47.328Z,31.4
2018-11-11T05:58:37.642Z,31.3
2018-11-11T05:59:26.390Z,31.1
2018-11-11T06:00:17.462Z,31
2018-11-11T06:01:06.648Z,30.9
2018-11-11T06:01:56.434Z,30.8
2018-11-11T06:02:46.489Z,30.6
2018-11-11T06:03:36.692Z,30.5
2018-11-11T06:04:27.582Z,30.4
2018-11-11T06:05:16.530Z,30.3
2018-11-11T06:06:07.197Z,30.2
2018-11-11T06:06:55.714Z,28.9
2018-11-11T06:07:46.757Z,27.9
2018-11-11T06:08:38.429Z,27.3
2018-11-11T06:09:28.657Z,27
2018-11-11T06:10:18.264Z,26.8
2018-11-11T06:11:08.077Z,26.6
2018-11-11T06:11:58.579Z,26.5
2018-11-11T06:12:46.562Z,26.4
2018-11-11T06:13:38.424Z,26.3
2018-11-11T06:14:28.088Z,26.2
2018-11-11T06:15:18.464Z,26.1
2018-11-11T06:16:07.398Z,26
2018-11-11T06:16:59.539Z,25.8
2018-11-11T06:17:49.014Z,25.8
2018-11-11T06:18:39.544Z,26.1
2018-11-11T06:19:28.434Z,26.5
2018-11-11T06:20:18.442Z,26.9
2018-11-11T06:21:07.911Z,27.4
2018-11-11T06:21:59.969Z,27.8
2018-11-11T06:22:49.158Z,28.1
2018-11-11T06:23:38.973Z,28.5
2018-11-11T06:24:28.589Z,28.8
2018-11-11T06:25:19.876Z,29.1
2018-11-11T06:26:09.954Z,29.4
2018-11-11T06:26:59.387Z,29.6
2018-11-11T06:27:49.093Z,29.8
2018-11-11T06:28:39.221Z,30
2018-11-11T06:29:29.873Z,30.2
2018-11-11T06:30:19.338Z,30.4
2018-11-11T06:31:09.501Z,30.6
2018-11-11T06:32:00.526Z,30.8
2018-11-11T06:32:49.201Z,30.9
2018-11-11T06:33:39.841Z,31
2018-11-11T06:34:29.768Z,31.1
2018-11-11T06:35:19.961Z,31.3
2018-11-11T06:36:10.090Z,31.3
2018-11-11T06:36:59.597Z,31.3
2018-11-11T06:37:49.037Z,31.1
2018-11-11T06:38:39.987Z,31
2018-11-11T06:39:29.520Z,30.9
2018-11-11T06:40:18.762Z,30.8
2018-11-11T06:41:09.291Z,30.6
2018-11-11T06:41:59.645Z,30.5
2018-11-11T06:42:50.490Z,30.4
2018-11-11T06:43:39.010Z,30.3
2018-11-11T06:44:29.882Z,30.1
2018-11-11T06:45:19.339Z,29.1
2018-11-11T06:46:09.227Z,28.1
2018-11-11T06:47:00.812Z,27.6
2018-11-11T06:47:50.862Z,27.2
2018-11-11T06:48:40.601Z,26.9
2018-11-11T06:49:29.327Z,26.8
2018-11-11T06:50:21.255Z,26.7
2018-11-11T06:51:10.822Z,26.6
2018-11-11T06:52:01.465Z,26.4
2018-11-11T06:52:50.443Z,26.4
2018-11-11T06:53:40.571Z,26.3
2018-11-11T06:54:30.914Z,26.2
2018-11-11T06:55:20.390Z,26.1
2018-11-11T06:56:10.632Z,26.1
2018-11-11T06:56:59.407Z,25.9
2018-11-11T06:57:50.490Z,25.9
2018-11-11T06:58:41.089Z,25.8
2018-11-11T06:59:30.326Z,25.8
2018-11-11T07:00:20.146Z,25.6
2018-11-11T07:01:10.114Z,25.6
2018-11-11T07:02:00.134Z,25.5
2018-11-11T07:02:51.403Z,25.4
2018-11-11T07:03:40.411Z,25.4
2018-11-11T07:04:31.876Z,25.3
2018-11-11T07:05:20.297Z,25.2
2018-11-11T07:06:11.032Z,25.2
2018-11-11T07:07:02.691Z,25.1
2018-11-11T07:07:52.981Z,25
2018-11-11T07:08:42.353Z,24.9
2018-11-11T07:09:32.842Z,24.9
2018-11-11T07:10:22.303Z,24.8
2018-11-11T07:11:11.873Z,24.8
2018-11-11T07:12:02.118Z,24.7
2018-11-11T07:12:53.119Z,24.6
2018-11-11T07:13:42.215Z,24.5
2018-11-11T07:14:32.122Z,24.4
2018-11-11T07:15:22.079Z,24.4
2018-11-11T07:16:11.410Z,24.3
2018-11-11T07:17:02.740Z,24.3
2018-11-11T07:17:52.748Z,24.2
2018-11-11T07:18:42.208Z,24.1
2018-11-11T07:19:31.612Z,24.1
2018-11-11T07:20:23.068Z,23.9
2018-11-11T07:21:13.435Z,23.9
2018-11-11T07:22:03.767Z,23.8
2018-11-11T07:22:54.333Z,23.8
2018-11-11T07:23:44.262Z,23.7
2018-11-11T07:24:33.670Z,23.6
2018-11-11T07:25:23.260Z,23.6
2018-11-11T07:26:12.050Z,23.5
2018-11-11T07:27:03.720Z,23.4
2018-11-11T07:27:53.679Z,23.4
2018-11-11T07:28:43.407Z,23.3
2018-11-11T07:29:34.056Z,23.3
2018-11-11T07:30:23.994Z,23.2
2018-11-11T07:31:13.472Z,23.1
2018-11-11T07:32:03.415Z,23.1
2018-11-11T07:32:53.795Z,23
2018-11-11T07:33:43.817Z,22.9
2018-11-11T07:34:33.939Z,22.9
2018-11-11T07:35:23.675Z,22.8
2018-11-11T07:36:15.402Z,22.8
2018-11-11T07:37:04.082Z,22.7
2018-11-11T07:37:54.909Z,22.6
2018-11-11T07:38:44.627Z,22.6
2018-11-11T07:39:33.704Z,22.5
2018-11-11T07:40:24.226Z,22.4
2018-11-11T07:41:14.685Z,22.4
2018-11-11T07:42:05.502Z,22.3
2018-11-11T07:42:54.404Z,22.3
2018-11-11T07:43:44.726Z,22.3
2018-11-11T07:44:35.551Z,22.1
2018-11-11T07:45:25.263Z,22.1
2018-11-11T07:46:15.016Z,22.1
2018-11-11T07:47:05.009Z,22
2018-11-11T07:47:56.868Z,21.9
2018-11-11T07:48:45.619Z,21.9
2018-11-11T07:49:34.721Z,21.8
2018-11-11T07:50:25.793Z,21.8
2018-11-11T07:51:14.745Z,21.8
2018-11-11T07:52:06.453Z,21.7
2018-11-11T07:52:55.163Z,21.6
2018-11-11T07:53:44.670Z,21.6
2018-11-11T07:54:34.867Z,21.5
2018-11-11T07:55:24.753Z,21.4
2018-11-11T07:56:15.830Z,21.4
2018-11-11T07:57:04.421Z,21.3
2018-11-11T07:57:55.296Z,21.3
2018-11-11T07:58:44.956Z,21.3
2018-11-11T07:59:36.258Z,21.2
2018-11-11T08:01:15.706Z,21.1
2018-11-11T08:02:06.620Z,21.1
2018-11-11T08:02:55.882Z,21
2018-11-11T08:03:45.443Z,20.9
2018-11-11T08:04:36.623Z,20.9
2018-11-11T08:05:25.065Z,20.8
2018-11-11T08:06:16.227Z,20.8
2018-11-11T08:07:06.237Z,20.8
2018-11-11T08:07:56.647Z,20.7
2018-11-11T08:08:46.207Z,20.6
2018-11-11T08:09:36.055Z,20.6
2018-11-11T08:10:27.002Z,20.5
2018-11-11T08:11:18.815Z,20.4
2018-11-11T08:12:06.125Z,20.4
2018-11-11T08:12:56.802Z,20.3
2018-11-11T08:13:46.714Z,20.3
2018-11-11T08:14:37.054Z,20.2
2018-11-11T08:15:25.562Z,20.1
2018-11-11T08:16:16.262Z,20.1
2018-11-11T08:17:07.395Z,20.1
2018-11-11T08:17:57.779Z,20
2018-11-11T08:18:47.069Z,20
2018-11-11T08:19:36.589Z,19.9
2018-11-11T08:20:27.719Z,19.9
2018-11-11T08:21:17.636Z,19.9
2018-11-11T08:22:07.909Z,19.8
2018-11-11T08:22:57.384Z,19.8
2018-11-11T08:23:47.063Z,19.8
2018-11-11T08:24:36.886Z,19.7
2018-11-11T08:25:28.217Z,19.6
2018-11-11T08:26:16.857Z,19.6
2018-11-11T08:27:06.989Z,19.6
2018-11-11T08:27:57.038Z,19.5
2018-11-11T08:28:47.162Z,19.5
2018-11-11T08:29:37.341Z,19.5
2018-11-11T08:30:27.125Z,19.4
2018-11-11T08:31:17.834Z,19.4
2018-11-11T08:32:08.836Z,19.3
2018-11-11T08:32:58.556Z,19.3
2018-11-11T08:33:47.031Z,19.3
2018-11-11T08:34:38.148Z,19.3
2018-11-11T08:35:27.945Z,19.2
2018-11-11T08:36:18.334Z,19.1
2018-11-11T08:37:08.561Z,19.1
2018-11-11T08:37:57.587Z,19.1
2018-11-11T08:38:49.635Z,19.1
2018-11-11T08:39:39.109Z,19
2018-11-11T08:40:28.629Z,18.9
2018-11-11T08:41:17.245Z,18.9
2018-11-11T08:42:08.960Z,18.9
2018-11-11T08:42:58.563Z,18.9
2018-11-11T08:43:48.156Z,18.8
2018-11-11T08:44:38.371Z,18.8
2018-11-11T08:46:18.928Z,18.6
2018-11-11T08:47:08.131Z,18.6
2018-11-11T08:48:00.095Z,18.6
2018-11-11T08:48:49.728Z,18.5
2018-11-11T08:49:40.222Z,18.5
2018-11-11T08:50:28.678Z,18.4
2018-11-11T08:51:19.877Z,18.4
2018-11-11T08:52:10.020Z,18.4
2018-11-11T09:08:50.671Z,17.7
2018-11-11T09:09:38.877Z,17.7
2018-11-11T09:10:31.139Z,17.6
2018-11-11T09:11:22.148Z,17.6
2018-11-11T09:12:10.280Z,17.6
2018-11-11T09:12:59.354Z,17.5
2018-11-11T09:13:51.146Z,17.5
2018-11-11T09:14:40.880Z,17.4
2018-11-11T09:15:29.448Z,17.4
2018-11-11T09:16:20.866Z,17.4
2018-11-11T09:17:11.390Z,17.4
2018-11-11T09:18:01.427Z,17.4
2018-11-11T09:18:51.131Z,17.4
2018-11-11T09:19:40.954Z,17.3
2018-11-11T09:20:30.888Z,17.3
2018-11-11T09:21:22.341Z,17.3
2018-11-11T09:22:11.731Z,17.3
2018-11-11T09:23:01.203Z,17.3
2018-11-11T09:23:50.762Z,17.3
2018-11-11T09:24:40.889Z,17.2
2018-11-11T09:25:32.075Z,17.2
2018-11-11T09:26:21.100Z,17.2
2018-11-11T09:27:12.133Z,17.1
2018-11-11T09:28:01.104Z,17.1
2018-11-11T09:28:52.132Z,17.1
2018-11-11T09:29:44.903Z,17.1
2018-11-11T09:30:35.382Z,17.1
2018-11-11T09:31:22.323Z,17.1
2018-11-11T09:35:34.045Z,16.9
2018-11-11T09:36:22.011Z,16.9
2018-11-11T09:37:11.707Z,16.9
2018-11-11T09:38:02.621Z,16.9
2018-11-11T09:38:52.515Z,16.9
2018-11-11T09:39:43.090Z,16.9
2018-11-11T09:40:31.908Z,16.9
2018-11-11T09:41:23.086Z,16.8
2018-11-11T09:42:12.355Z,16.8
2018-11-11T09:43:02.232Z,16.8
2018-11-11T09:43:53.362Z,16.8
2018-11-11T09:44:41.786Z,16.8
2018-11-11T09:45:33.746Z,16.8
2018-11-11T09:46:24.329Z,16.7
2018-11-11T09:47:13.007Z,16.8
2018-11-11T09:48:04.835Z,16.7
2018-11-11T09:48:53.114Z,16.7
2018-11-11T09:49:43.185Z,16.6
2018-11-11T09:50:34.267Z,16.6
2018-11-11T09:51:22.861Z,16.6
2018-11-11T09:52:12.834Z,16.6
2018-11-11T09:53:02.963Z,16.6
2018-11-11T09:53:53.827Z,16.6
2018-11-11T09:54:43.334Z,16.6
2018-11-11T09:55:32.518Z,16.6
2018-11-11T09:56:24.807Z,16.6
2018-11-11T09:57:14.067Z,16.5
2018-11-11T09:58:02.922Z,16.5
2018-11-11T09:58:55.566Z,16.5
2018-11-11T09:59:47.201Z,16.5
2018-11-11T10:00:34.839Z,16.5
2018-11-11T10:01:23.672Z,16.5
2018-11-11T10:02:12.438Z,16.4
2018-11-11T10:03:04.775Z,16.4
2018-11-11T10:03:54.223Z,16.4
2018-11-11T10:04:44.026Z,16.4
2018-11-11T10:05:33.916Z,16.4
2018-11-11T10:06:25.163Z,16.4
2018-11-11T10:07:15.319Z,16.4
2018-11-11T10:08:03.822Z,16.4
2018-11-11T10:08:53.332Z,16.4
2018-11-11T10:09:43.891Z,16.3
2018-11-11T10:10:34.327Z,16.3
2018-11-11T10:11:25.869Z,16.3
2018-11-11T10:12:15.335Z,16.3
2018-11-11T10:13:03.744Z,16.3
2018-11-11T10:13:54.322Z,16.3
2018-11-11T10:14:44.811Z,16.3
2018-11-11T10:15:34.098Z,16.3
2018-11-11T10:16:24.909Z,16.3
2018-11-11T10:17:15.186Z,16.2
2018-11-11T10:18:05.009Z,16.2
2018-11-11T10:18:54.536Z,16.2
2018-11-11T10:19:45.315Z,16.2
2018-11-11T10:20:36.838Z,16.2
2018-11-11T10:21:26.320Z,16.2
2018-11-11T10:22:15.595Z,16.2
2018-11-11T10:23:04.773Z,16.1
2018-11-11T10:23:55.687Z,16.1
2018-11-11T10:24:43.784Z,16.1
2018-11-11T10:25:35.280Z,16.1
2018-11-11T10:26:27.168Z,16.1
2018-11-11T10:27:16.376Z,16.1
2018-11-11T10:28:06.025Z,16.1
2018-11-11T10:28:56.154Z,16.1
2018-11-11T10:29:45.208Z,16.1
2018-11-11T10:30:35.870Z,16.1
2018-11-11T10:31:25.630Z,16.1
2018-11-11T10:32:15.213Z,16.1
2018-11-11T10:33:07.080Z,16.1
2018-11-11T10:33:55.581Z,16.1
2018-11-11T10:34:46.471Z,16.1
2018-11-11T10:35:37.545Z,16
2018-11-11T10:36:26.505Z,16
2018-11-11T10:37:16.815Z,16
2018-11-11T10:38:07.128Z,16
2018-11-11T10:38:55.763Z,16
2018-11-11T10:39:47.842Z,16
2018-11-11T10:40:36.933Z,16
2018-11-11T10:41:25.708Z,15.9
2018-11-11T10:42:16.184Z,15.9
2018-11-11T10:43:06.000Z,15.9
2018-11-11T10:43:57.120Z,15.9
2018-11-11T10:44:46.293Z,15.9
2018-11-11T10:45:36.603Z,15.9
2018-11-11T10:46:26.557Z,15.9
2018-11-11T10:47:17.769Z,15.9
2018-11-11T10:48:07.697Z,15.9
2018-11-11T10:48:57.957Z,15.9
2018-11-11T10:49:48.371Z,15.9
2018-11-11T10:50:36.539Z,15.9
2018-11-11T10:51:28.217Z,15.9
2018-11-11T10:52:17.431Z,15.9
2018-11-11T10:53:07.136Z,15.9
2018-11-11T10:53:57.347Z,15.9
2018-11-11T10:54:49.039Z,15.8
2018-11-11T10:55:38.219Z,15.9
2018-11-11T10:56:26.577Z,15.8
2018-11-11T10:57:17.479Z,15.8
2018-11-11T10:58:07.621Z,15.8
2018-11-11T10:58:57.699Z,15.8
2018-11-11T10:59:47.772Z,15.8
2018-11-11T11:00:37.082Z,15.8
2018-11-11T11:01:27.942Z,15.8
2018-11-11T11:02:18.932Z,15.8
2018-11-11T11:03:08.409Z,15.8
2018-11-11T11:03:57.719Z,15.8
2018-11-11T11:04:47.839Z,15.8
2018-11-11T11:05:39.208Z,15.8
2018-11-11T11:06:29.454Z,15.8
2018-11-11T11:07:19.664Z,15.8
2018-11-11T11:08:09.281Z,15.8
2018-11-11T11:08:58.684Z,15.8
2018-11-11T11:09:48.698Z,15.8
2018-11-11T11:10:39.316Z,15.8
2018-11-11T11:11:28.988Z,15.8
2018-11-11T11:12:19.653Z,15.8
2018-11-11T11:13:10.798Z,15.7
2018-11-11T11:14:01.031Z,15.7
2018-11-11T11:14:50.073Z,15.8
2018-11-11T11:15:38.893Z,15.7
2018-11-11T11:16:29.298Z,15.7
2018-11-11T11:17:19.966Z,15.7
2018-11-11T11:18:08.920Z,15.7
2018-11-11T11:18:59.543Z,15.7
2018-11-11T11:19:50.490Z,15.7
2018-11-11T11:20:39.747Z,15.7
2018-11-11T11:21:30.112Z,15.7
2018-11-11T11:22:20.598Z,15.7
2018-11-11T11:23:11.540Z,15.7
2018-11-11T11:23:59.176Z,15.7
2018-11-11T11:24:49.089Z,15.7
2018-11-11T11:25:39.933Z,15.7
2018-11-11T11:26:29.803Z,15.6
2018-11-11T11:27:21.396Z,15.6
2018-11-11T11:28:10.015Z,15.6
2018-11-11T11:29:00.861Z,15.6
2018-11-11T11:29:50.612Z,15.6
2018-11-11T11:30:40.630Z,15.6
2018-11-11T11:31:31.951Z,15.6
2018-11-11T11:32:22.027Z,15.6
2018-11-11T11:33:10.322Z,15.6
2018-11-11T11:34:01.831Z,15.6
2018-11-11T11:34:51.510Z,15.6
2018-11-11T11:35:43.312Z,15.6
2018-11-11T11:36:30.560Z,15.6
2018-11-11T11:37:22.309Z,15.6
2018-11-11T11:38:12.375Z,15.6
2018-11-11T11:39:02.109Z,15.6
2018-11-11T11:39:51.583Z,15.6
2018-11-11T11:40:41.313Z,15.6
2018-11-11T11:41:32.514Z,15.6
2018-11-11T11:42:22.078Z,15.6
2018-11-11T11:43:11.259Z,15.6
2018-11-11T11:44:01.531Z,15.6
2018-11-11T11:44:50.944Z,15.6
2018-11-11T11:45:41.791Z,15.6
2018-11-11T11:46:31.574Z,15.6
2018-11-11T11:47:24.187Z,15.6
2018-11-11T11:48:13.027Z,15.6
2018-11-11T11:49:01.742Z,15.6
2018-11-11T11:49:51.957Z,15.6
2018-11-11T11:50:42.221Z,15.6
2018-11-11T11:51:32.376Z,15.6
2018-11-11T11:52:24.708Z,15.6
2018-11-11T11:53:13.904Z,15.6
2018-11-11T11:54:02.026Z,15.6
2018-11-11T11:54:52.282Z,15.5
2018-11-11T11:55:41.858Z,15.6
2018-11-11T11:56:33.096Z,15.5
2018-11-11T11:57:23.228Z,15.5
2018-11-11T11:58:12.055Z,15.5
2018-11-11T11:59:02.593Z,15.6
2018-11-11T11:59:52.313Z,15.5
2018-11-11T12:00:42.591Z,15.5
2018-11-11T12:01:32.345Z,15.6
2018-11-11T12:02:23.183Z,15.6
2018-11-11T12:03:12.491Z,15.6
2018-11-11T12:04:02.035Z,15.5